Time;durP1;ratioP1;P1;durP2;ratioP2;P2;SDS_P1;SDS_P2;PMS_P1;PMS_P2;Temp;Humidity;BMP_temperature;BMP_pressure;BME280_temperature;BME280_humidity;BME280_pressure;Samples;Min_cycle;Max_cycle;Signal;HPM_P1;HPM_P2
2022/04/08 00:00:21;;;;;;;6.13;4.57;;;;;;;11.71;74.14;95657.28;6217946;23;20220;-92
2022/04/08 00:02:50;;;;;;;6.00;5.07;;;;;;;11.62;74.36;95639.78;6240527;23;20176;-89
2022/04/08 00:05:17;;;;;;;3.83;3.10;;;;;;;11.59;73.62;95601.09;6240632;23;20193;-89
2022/04/08 00:07:44;;;;;;;4.30;3.40;;;;;;;11.98;72.83;95642.31;6214459;23;20173;-91
2022/04/08 00:10:13;;;;;;;6.23;3.10;;;;;;;11.90;74.23;95642.03;6250191;23;20198;-87
2022/04/08 00:12:40;;;;;;;4.90;3.00;;;;;;;11.66;74.44;95608.34;6257670;22;20162;-88
2022/04/08 00:15:07;;;;;;;3.67;2.30;;;;;;;11.90;75.30;95631.66;6241436;23;20158;-87
2022/04/08 00:17:35;;;;;;;2.60;2.40;;;;;;;12.05;74.29;95617.56;6217390;23;20172;-86
2022/04/08 00:20:03;;;;;;;4.07;2.70;;;;;;;12.03;74.76;95606.47;6249558;23;20174;-90
2022/04/08 00:22:31;;;;;;;2.80;2.50;;;;;;;12.01;75.23;95593.59;6239927;23;20252;-87
2022/04/08 00:24:59;;;;;;;4.27;2.60;;;;;;;12.06;74.79;95601.88;6239019;23;20200;-88
2022/04/08 00:27:29;;;;;;;2.87;2.63;;;;;;;12.04;75.22;95602.94;6239901;23;20631;-84
2022/04/08 00:29:56;;;;;;;5.33;2.93;;;;;;;12.21;74.53;95623.28;6242197;23;20163;-88
2022/04/08 00:32:24;;;;;;;4.03;3.00;;;;;;;12.24;74.59;95626.44;6242292;23;20166;-89
2022/04/08 00:34:51;;;;;;;3.93;3.20;;;;;;;11.92;74.61;95577.91;6216997;23;20161;-87
2022/04/08 00:37:18;;;;;;;3.83;2.57;;;;;;;12.03;74.27;95611.66;6243027;23;20162;-85
2022/04/08 00:39:45;;;;;;;3.30;2.70;;;;;;;11.90;74.18;95583.22;6216010;23;20173;-88
2022/04/08 00:42:13;;;;;;;5.03;3.23;;;;;;;12.12;73.53;95610.97;6242414;23;20178;-88
2022/04/08 00:44:40;;;;;;;3.40;2.77;;;;;;;12.23;72.08;95629.16;6239959;23;20202;-87
2022/04/08 00:47:08;;;;;;;4.73;3.17;;;;;;;12.06;72.85;95612.25;6241756;23;20665;-89
2022/04/08 00:49:37;;;;;;;6.63;4.00;;;;;;;12.24;74.06;95646.41;6241848;23;20616;-88
2022/04/08 00:52:05;;;;;;;8.37;4.40;;;;;;;12.09;74.93;95632.81;6242756;23;20163;-86
2022/04/08 00:54:32;;;;;;;9.37;5.23;;;;;;;12.09;74.48;95627.63;6214693;23;20180;-88
2022/04/08 00:57:00;;;;;;;7.47;5.13;;;;;;;12.00;75.49;95601.50;6245102;23;20162;-85
2022/04/08 00:59:28;;;;;;;6.67;5.33;;;;;;;11.98;75.13;95634.53;6250759;23;20217;-87
2022/04/08 01:01:58;;;;;;;9.10;5.13;;;;;;;11.53;75.68;95617.91;6242031;23;20169;-90
2022/04/08 01:04:27;;;;;;;7.97;5.03;;;;;;;11.66;75.55;95623.06;6242364;23;20201;-88
2022/04/08 01:06:54;;;;;;;8.00;5.40;;;;;;;11.75;75.70;95658.69;6240636;23;20171;-88
2022/04/08 01:09:24;;;;;;;9.43;5.63;;;;;;;11.79;76.46;95640.22;6240285;23;20167;-87
2022/04/08 01:11:51;;;;;;;6.63;5.20;;;;;;;11.78;75.78;95637.75;6238909;23;20189;-87
2022/04/08 01:14:19;;;;;;;7.83;5.40;;;;;;;11.65;76.49;95642.13;6237723;23;20220;-89
2022/04/08 01:16:46;;;;;;;7.50;5.80;;;;;;;11.75;77.05;95659.53;6221644;23;20168;-86
2022/04/08 01:19:13;;;;;;;10.87;5.80;;;;;;;11.63;77.00;95624.09;6218210;23;20226;-88
2022/04/08 01:21:40;;;;;;;11.10;5.70;;;;;;;11.63;76.56;95621.50;6239795;23;20640;-88
2022/04/08 01:24:12;;;;;;;8.73;5.90;;;;;;;11.63;76.68;95669.94;6238910;23;20966;-87
2022/04/08 01:26:41;;;;;;;8.17;5.60;;;;;;;11.63;77.06;95669.94;6239940;23;20166;-89
2022/04/08 01:29:09;;;;;;;7.43;5.57;;;;;;;11.65;77.05;95660.28;6239343;23;20195;-90
2022/04/08 01:31:43;;;;;;;8.27;5.50;;;;;;;11.74;76.82;95670.88;6239452;23;20165;-85
2022/04/08 01:34:11;;;;;;;7.43;5.30;;;;;;;11.47;77.33;95667.63;6213446;23;20170;-91
2022/04/08 01:36:39;;;;;;;10.57;5.07;;;;;;;11.45;77.24;95647.00;6238914;23;20171;-91
2022/04/08 01:39:09;;;;;;;9.83;5.53;;;;;;;11.42;76.34;95631.66;6212941;23;20189;-89
2022/04/08 01:41:36;;;;;;;9.47;5.53;;;;;;;11.43;76.31;95632.47;6211971;23;20157;-88
2022/04/08 01:44:03;;;;;;;11.00;7.10;;;;;;;11.76;69.50;95634.44;6239831;23;20172;-90
2022/04/08 01:46:30;;;;;;;8.97;7.17;;;;;;;12.21;63.41;95620.66;6239243;23;20193;-90
2022/04/08 01:49:00;;;;;;;10.80;6.73;;;;;;;12.55;62.63;95616.38;6213612;23;20194;-90
2022/04/08 01:51:27;;;;;;;10.57;7.00;;;;;;;12.74;63.19;95645.16;6215167;23;20227;-89
2022/04/08 01:53:54;;;;;;;8.13;6.87;;;;;;;12.80;63.44;95653.31;6213123;23;20190;-88
2022/04/08 01:56:21;;;;;;;9.83;7.67;;;;;;;12.72;64.53;95642.69;6212518;23;20235;-89
2022/04/08 01:58:49;;;;;;;10.03;5.97;;;;;;;12.65;67.05;95657.06;6238572;23;20541;-91
2022/04/08 02:01:16;;;;;;;8.63;5.73;;;;;;;12.62;67.58;95662.53;6239260;23;20165;-88
2022/04/08 02:03:45;;;;;;;10.47;5.63;;;;;;;12.57;67.69;95653.44;6238937;23;20630;-90
2022/04/08 02:06:12;;;;;;;6.37;5.40;;;;;;;12.56;69.13;95668.19;6212738;23;20275;-90
2022/04/08 02:08:39;;;;;;;8.77;6.30;;;;;;;12.42;67.46;95652.81;6239513;23;20175;-90
2022/04/08 02:11:06;;;;;;;8.47;5.87;;;;;;;12.47;65.40;95640.31;6212218;23;20217;-89
2022/04/08 02:13:33;;;;;;;10.63;6.83;;;;;;;12.55;64.60;95631.94;6239702;23;20161;-88
2022/04/08 02:16:03;;;;;;;9.67;6.90;;;;;;;12.59;64.61;95641.97;6254195;23;20389;-87
2022/04/08 02:18:32;;;;;;;8.13;6.87;;;;;;;12.64;62.87;95623.44;6213823;23;20171;-89
2022/04/08 02:21:00;;;;;;;10.33;6.93;;;;;;;12.84;61.24;95649.53;6239371;23;20167;-90
2022/04/08 02:23:28;;;;;;;8.50;7.00;;;;;;;12.93;60.97;95641.06;6239099;23;20162;-90
2022/04/08 02:25:55;;;;;;;10.27;7.37;;;;;;;13.01;61.16;95659.47;6239514;23;20666;-91
2022/04/08 02:28:23;;;;;;;9.87;7.40;;;;;;;13.04;60.55;95658.44;6238703;23;20158;-89
2022/04/08 02:30:52;;;;;;;9.03;5.97;;;;;;;13.12;60.13;95661.28;6240111;23;20518;-89
2022/04/08 02:33:20;;;;;;;6.87;5.53;;;;;;;13.03;61.06;95652.38;6211965;23;20256;-87
2022/04/08 02:35:50;;;;;;;6.83;5.07;;;;;;;13.01;61.57;95656.88;6239653;23;20626;-89
2022/04/08 02:38:17;;;;;;;8.47;5.63;;;;;;;12.95;61.56;95653.91;6238991;23;20171;-90
2022/04/08 02:40:45;;;;;;;5.70;4.90;;;;;;;12.40;62.64;95566.44;6239313;23;20642;-88
2022/04/08 02:43:12;;;;;;;8.83;6.27;;;;;;;12.78;61.62;95633.59;6239463;23;20175;-91
2022/04/08 02:45:39;;;;;;;7.60;5.20;;;;;;;12.99;62.38;95674.38;6211348;23;20211;-90
2022/04/08 02:48:07;;;;;;;8.70;5.53;;;;;;;12.93;63.46;95667.03;6239692;23;20172;-90
2022/04/08 02:50:34;;;;;;;6.63;5.37;;;;;;;12.96;63.84;95677.19;6238311;23;20166;-89
2022/04/08 02:53:02;;;;;;;10.93;6.60;;;;;;;12.78;64.29;95663.00;6239691;23;20185;-90
2022/04/08 02:55:28;;;;;;;10.30;6.60;;;;;;;12.80;63.76;95660.28;6238209;23;20586;-90
2022/04/08 02:57:56;;;;;;;11.00;6.13;;;;;;;12.87;63.66;95682.25;6239499;23;20523;-88
2022/04/08 03:00:23;;;;;;;7.93;6.30;;;;;;;12.54;62.74;95643.25;6239395;23;20652;-89
2022/04/08 03:02:51;;;;;;;9.70;6.53;;;;;;;12.59;63.05;95654.16;6237039;23;20694;-88
2022/04/08 03:05:18;;;;;;;9.93;7.20;;;;;;;12.85;61.62;95678.97;6239548;23;20196;-89
2022/04/08 03:07:47;;;;;;;10.87;7.03;;;;;;;13.07;59.98;95677.22;6238645;23;20174;-90
2022/04/08 03:10:15;;;;;;;7.03;6.10;;;;;;;12.88;59.74;95642.38;6239813;23;20200;-89
2022/04/08 03:12:43;;;;;;;8.47;6.33;;;;;;;13.20;59.32;95694.47;6239492;23;20167;-90
2022/04/08 03:15:11;;;;;;;8.67;6.27;;;;;;;12.86;59.68;95629.47;6224621;23;20668;-88
2022/04/08 03:17:38;;;;;;;7.00;6.30;;;;;;;12.96;59.45;95668.59;6216084;23;20613;-92
2022/04/08 03:20:06;;;;;;;6.27;5.50;;;;;;;13.19;59.99;95698.03;6247250;23;20157;-89
2022/04/08 03:22:34;;;;;;;8.53;6.20;;;;;;;13.01;60.16;95676.84;6225833;23;20612;-90
2022/04/08 03:25:01;;;;;;;9.33;5.73;;;;;;;13.14;60.35;95694.94;6241854;23;20196;-90
2022/04/08 03:27:29;;;;;;;6.93;5.93;;;;;;;13.19;59.64;95693.63;6241458;23;20190;-88
2022/04/08 03:29:56;;;;;;;6.27;5.67;;;;;;;13.23;59.03;95702.03;6239490;23;20195;-90
2022/04/08 03:32:23;;;;;;;7.30;6.60;;;;;;;13.01;59.15;95669.88;6241662;23;20171;-88
2022/04/08 03:34:57;;;;;;;8.00;5.73;;;;;;;13.04;59.85;95680.03;6241019;23;20169;-90
2022/04/08 03:37:26;;;;;;;8.07;5.90;;;;;;;13.23;59.35;95712.44;6214311;23;20525;-90
2022/04/08 03:39:54;;;;;;;6.33;5.43;;;;;;;13.06;60.09;95698.94;6240706;23;20255;-88
2022/04/08 03:42:23;;;;;;;7.93;5.83;;;;;;;13.13;60.07;95714.91;6240387;23;20173;-87
2022/04/08 03:44:51;;;;;;;6.43;5.77;;;;;;;12.97;59.15;95694.44;6240779;23;20196;-87
2022/04/08 03:47:19;;;;;;;8.27;5.27;;;;;;;13.14;59.36;95716.56;6212797;23;20165;-88
2022/04/08 03:49:48;;;;;;;7.50;6.70;;;;;;;13.20;58.33;95725.66;6240838;23;20165;-87
2022/04/08 03:52:16;;;;;;;6.90;5.87;;;;;;;13.04;58.14;95705.22;6214651;23;20463;-91
2022/04/08 03:54:43;;;;;;;8.17;5.47;;;;;;;13.21;58.30;95742.94;6240383;23;20172;-88
2022/04/08 03:57:11;;;;;;;8.27;5.57;;;;;;;13.19;58.88;95737.03;6217592;23;20174;-87
2022/04/08 03:59:41;;;;;;;9.33;5.87;;;;;;;13.09;58.37;95713.50;6245768;23;20250;-88
2022/04/08 04:02:08;;;;;;;6.00;5.40;;;;;;;13.22;57.51;95741.97;6241573;23;20252;-86
2022/04/08 04:04:37;;;;;;;7.13;5.73;;;;;;;12.90;58.74;95702.84;6250454;22;20153;-87
2022/04/08 04:07:07;;;;;;;5.73;5.23;;;;;;;13.02;57.86;95718.28;6271014;22;20222;-86
2022/04/08 04:09:35;;;;;;;7.97;5.50;;;;;;;13.13;57.63;95740.09;6265789;23;20156;-86
2022/04/08 04:12:08;;;;;;;8.67;5.87;;;;;;;13.16;56.90;95735.47;6260985;23;20172;-87
2022/04/08 04:14:35;;;;;;;6.77;5.77;;;;;;;13.12;56.93;95723.66;6237463;23;20169;-85
2022/04/08 04:17:02;;;;;;;6.53;4.70;;;;;;;12.97;56.06;95698.81;6253754;23;20648;-87
2022/04/08 04:19:31;;;;;;;5.97;5.07;;;;;;;13.35;56.30;95745.28;6215106;23;20179;-88
2022/04/08 04:21:59;;;;;;;5.73;4.93;;;;;;;13.34;56.38;95749.66;6240291;23;20164;-88
2022/04/08 04:24:26;;;;;;;10.23;5.30;;;;;;;13.28;56.76;95762.28;6241111;23;20173;-85
2022/04/08 04:26:55;;;;;;;6.27;4.97;;;;;;;13.35;56.79;95776.50;6240331;23;20195;-86
2022/04/08 04:29:22;;;;;;;4.90;4.20;;;;;;;13.36;57.43;95773.78;6239695;23;20240;-89
2022/04/08 04:31:49;;;;;;;5.83;4.90;;;;;;;13.26;57.01;95758.97;6240215;23;20176;-87
2022/04/08 04:34:18;;;;;;;6.07;4.37;;;;;;;13.42;56.13;95777.66;6240489;23;20624;-87
2022/04/08 04:36:45;;;;;;;5.03;3.83;;;;;;;13.50;54.77;95754.47;6240579;23;20480;-89
2022/04/08 04:39:13;;;;;;;6.17;4.77;;;;;;;13.42;54.13;95712.66;6240065;23;20163;-87
2022/04/08 04:41:41;;;;;;;6.27;4.30;;;;;;;14.06;53.36;95789.06;6214391;23;20259;-84
2022/04/08 04:44:08;;;;;;;5.00;4.40;;;;;;;14.09;53.83;95779.25;6213134;23;20234;-84
2022/04/08 04:46:36;;;;;;;5.77;4.60;;;;;;;14.24;53.41;95788.44;6240762;23;20197;-86
2022/04/08 04:49:05;;;;;;;5.27;4.50;;;;;;;14.38;53.51;95798.63;6241431;23;20166;-91
2022/04/08 04:51:35;;;;;;;6.77;4.40;;;;;;;14.58;52.31;95803.03;6197009;23;20176;-88
2022/04/08 04:54:06;;;;;;;5.73;4.07;;;;;;;14.70;52.17;95803.81;6241799;23;20171;-86
2022/04/08 04:56:34;;;;;;;6.37;3.90;;;;;;;14.65;51.46;95783.34;6213554;23;20188;-88
2022/04/08 04:59:01;;;;;;;4.57;3.77;;;;;;;14.46;51.20;95736.31;6213233;23;20256;-85
2022/04/08 05:01:28;;;;;;;7.53;3.70;;;;;;;14.88;51.22;95793.66;6240808;23;20165;-87
2022/04/08 05:03:55;;;;;;;5.30;3.90;;;;;;;15.13;50.76;95829.78;6249683;23;20167;-86
2022/04/08 05:06:22;;;;;;;5.30;4.00;;;;;;;15.27;49.76;95829.47;6246215;23;20227;-88
2022/04/08 05:08:52;;;;;;;4.00;3.27;;;;;;;15.37;49.59;95827.75;6242388;23;20162;-90
2022/04/08 05:11:20;;;;;;;4.03;2.90;;;;;;;15.34;48.31;95817.56;6246391;23;20201;-89
2022/04/08 05:13:50;;;;;;;2.90;2.60;;;;;;;15.38;48.40;95821.56;6222813;23;20169;-89
2022/04/08 05:16:18;;;;;;;6.63;2.97;;;;;;;15.38;48.46;95818.97;6241540;23;20575;-91
2022/04/08 05:18:47;;;;;;;4.17;3.10;;;;;;;15.56;48.46;95837.50;6213038;23;20960;-90
2022/04/08 05:21:14;;;;;;;5.37;3.10;;;;;;;15.48;48.42;95819.84;6241672;23;20157;-90
2022/04/08 05:23:41;;;;;;;2.97;2.67;;;;;;;15.62;47.70;95831.75;6240446;23;20227;-91
2022/04/08 05:26:08;;;;;;;5.40;2.60;;;;;;;15.49;48.19;95829.34;6241620;23;20197;-88
2022/04/08 05:28:35;;;;;;;3.63;2.87;;;;;;;15.62;48.90;95853.44;6241299;23;20184;-86
2022/04/08 05:31:02;;;;;;;2.80;2.40;;;;;;;15.66;48.83;95839.19;6214167;23;20221;-90
2022/04/08 05:33:30;;;;;;;4.37;2.70;;;;;;;15.70;48.03;95853.66;6241191;23;20158;-86
2022/04/08 05:35:57;;;;;;;3.53;2.27;;;;;;;15.83;48.00;95854.25;6238651;23;20174;-87
2022/04/08 05:38:24;;;;;;;2.50;2.30;;;;;;;15.68;47.87;95836.47;6239932;23;20544;-85
2022/04/08 05:40:51;;;;;;;5.23;2.83;;;;;;;16.05;47.60;95881.97;6212198;23;20165;-84
2022/04/08 05:43:18;;;;;;;3.00;2.70;;;;;;;16.00;46.53;95847.56;6239268;23;20212;-83
2022/04/08 05:45:45;;;;;;;4.07;2.70;;;;;;;16.22;45.77;95858.66;6211953;23;20969;-83
2022/04/08 05:48:12;;;;;;;3.27;2.40;;;;;;;16.05;46.38;95843.59;6240471;23;20166;-87
2022/04/08 05:50:39;;;;;;;3.07;2.73;;;;;;;16.03;46.78;95847.31;6241437;23;20565;-88
2022/04/08 05:53:06;;;;;;;3.17;2.80;;;;;;;16.30;46.98;95892.75;6239722;23;20614;-87
2022/04/08 05:55:59;;;;;;;4.43;2.77;;;;;;;16.29;46.35;95872.00;6241078;23;20178;-88
2022/04/08 05:58:26;;;;;;;3.83;2.43;;;;;;;16.26;45.76;95883.53;6189591;23;20606;-89
2022/04/08 06:00:53;;;;;;;4.33;2.53;;;;;;;16.31;46.11;95890.97;6213549;23;20170;-88
2022/04/08 06:03:20;;;;;;;4.50;2.60;;;;;;;16.51;44.68;95905.78;6212919;23;20173;-85
2022/04/08 06:05:49;;;;;;;4.30;2.87;;;;;;;16.46;44.87;95897.50;6240261;23;20204;-89
2022/04/08 06:08:16;;;;;;;3.70;2.83;;;;;;;16.53;45.30;95926.56;6215123;23;20169;-89
2022/04/08 06:10:44;;;;;;;3.40;2.97;;;;;;;16.63;45.60;95930.03;6220570;23;20193;-88
2022/04/08 06:13:12;;;;;;;2.73;2.53;;;;;;;16.54;45.76;95900.31;6218535;23;20173;-91
2022/04/08 06:15:40;;;;;;;4.80;3.13;;;;;;;16.85;46.09;95945.50;6240955;23;20539;-86
2022/04/08 06:18:09;;;;;;;3.23;2.87;;;;;;;16.87;44.57;95917.44;6240853;23;20173;-86
2022/04/08 06:20:36;;;;;;;2.97;2.67;;;;;;;17.01;44.00;95946.63;6240731;23;20249;-87
2022/04/08 06:23:04;;;;;;;5.00;2.57;;;;;;;16.83;44.44;95921.28;6240553;23;20180;-82
2022/04/08 06:25:32;;;;;;;3.67;2.70;;;;;;;16.69;44.68;95909.41;6214501;23;20516;-90
2022/04/08 06:28:04;;;;;;;3.50;3.00;;;;;;;17.01;45.02;95945.78;6240669;23;20219;-89
2022/04/08 06:30:34;;;;;;;3.37;2.67;;;;;;;17.22;43.55;95945.69;6241279;23;20166;-88
2022/04/08 06:33:05;;;;;;;4.90;2.70;;;;;;;17.23;42.90;95926.41;6213866;23;20162;-88
2022/04/08 06:35:34;;;;;;;6.27;2.93;;;;;;;17.55;43.01;95953.97;6214525;23;20170;-86
2022/04/08 06:38:08;;;;;;;4.20;2.70;;;;;;;17.62;42.67;95952.44;6242962;23;20191;-89
2022/04/08 06:40:38;;;;;;;5.47;3.13;;;;;;;17.66;42.04;95916.34;6243896;23;20171;-88
2022/04/08 06:43:08;;;;;;;5.97;4.10;;;;;;;18.15;41.01;95954.56;6243344;23;20167;-89
2022/04/08 06:45:36;;;;;;;5.23;4.03;;;;;;;18.21;40.63;95953.97;6244962;23;20172;-88
2022/04/08 06:48:04;;;;;;;5.47;2.90;;;;;;;18.39;40.32;95962.72;6245459;23;20710;-89
2022/04/08 06:50:35;;;;;;;6.23;3.33;;;;;;;18.39;39.75;95949.63;6225915;23;20260;-83
2022/04/08 06:53:03;;;;;;;3.30;2.60;;;;;;;18.43;38.47;95948.38;6252285;23;20179;-86
2022/04/08 06:55:31;;;;;;;4.37;2.70;;;;;;;18.62;38.87;95990.28;6251532;23;20172;-88
2022/04/08 06:58:03;;;;;;;3.13;2.50;;;;;;;18.53;38.91;95989.34;6223664;23;20695;-84
2022/04/08 07:00:34;;;;;;;5.27;2.83;;;;;;;18.48;39.47;96006.50;6175763;23;20569;-90
2022/04/08 07:03:04;;;;;;;4.77;2.47;;;;;;;18.51;38.75;95998.31;6241970;23;20164;-90
2022/04/08 07:05:31;;;;;;;3.23;2.17;;;;;;;18.51;39.40;95982.59;6216371;23;20182;-88
2022/04/08 07:07:58;;;;;;;4.83;3.10;;;;;;;18.53;39.81;96001.63;6242900;23;20299;-91
2022/04/08 07:10:26;;;;;;;3.10;2.00;;;;;;;18.77;39.48;96020.31;6247417;23;20210;-87
2022/04/08 07:12:54;;;;;;;4.63;2.70;;;;;;;18.81;39.67;96016.44;6217432;23;20240;-88
2022/04/08 07:15:25;;;;;;;3.87;2.30;;;;;;;18.83;37.29;96017.13;6242540;23;20164;-86
2022/04/08 07:17:52;;;;;;;4.50;2.03;;;;;;;18.57;38.79;95992.50;6245250;23;20179;-86
2022/04/08 07:20:22;;;;;;;3.13;2.70;;;;;;;18.64;38.43;96009.31;6243008;23;20170;-88
2022/04/08 07:22:51;;;;;;;2.00;1.80;;;;;;;18.73;36.93;96012.88;6243380;23;20176;-86
2022/04/08 07:25:19;;;;;;;2.87;2.40;;;;;;;18.69;37.51;96028.09;6247634;23;20165;-83
2022/04/08 07:27:52;;;;;;;3.20;2.57;;;;;;;18.80;38.50;96027.03;6220101;23;20204;-86
2022/04/08 07:30:21;;;;;;;5.80;2.93;;;;;;;19.05;39.17;96050.00;6254939;23;20171;-83
2022/04/08 07:32:54;;;;;;;6.43;3.57;;;;;;;19.22;38.63;96050.06;6254737;23;20171;-86
2022/04/08 07:35:28;;;;;;;2.83;2.37;;;;;;;19.33;37.78;96038.53;6254585;23;20262;-88
2022/04/08 07:37:57;;;;;;;7.03;3.50;;;;;;;19.42;38.02;96043.75;6229782;23;20200;-92
2022/04/08 07:40:25;;;;;;;3.97;2.70;;;;;;;19.48;37.63;96037.06;6253800;23;20168;-86
2022/04/08 07:42:53;;;;;;;4.07;2.90;;;;;;;19.65;37.37;96043.28;6253746;23;20256;-85
2022/04/08 07:45:27;;;;;;;11.90;9.10;;;;;;;19.67;36.71;96049.22;6262594;23;20512;-88
2022/04/08 07:47:58;;;;;;;6.47;2.93;;;;;;;19.44;36.37;95993.69;6264826;23;20256;-89
2022/04/08 07:50:27;;;;;;;4.37;2.40;;;;;;;19.90;36.73;96059.16;6210018;23;20196;-87
2022/04/08 07:52:57;;;;;;;6.17;2.90;;;;;;;19.97;36.68;96048.88;6213790;23;20175;-83
2022/04/08 07:55:26;;;;;;;2.53;2.17;;;;;;;19.24;36.01;95979.84;6263019;23;20616;-86
2022/04/08 07:57:56;;;;;;;3.10;2.40;;;;;;;19.78;36.33;96070.03;6233198;23;20173;-83
2022/04/08 08:00:26;;;;;;;4.07;2.33;;;;;;;19.83;35.43;96062.50;6205988;23;20191;-86
2022/04/08 08:03:04;;;;;;;4.37;2.17;;;;;;;19.18;34.74;96008.50;6231682;23;20166;-87
2022/04/08 08:05:33;;;;;;;3.07;2.00;;;;;;;19.30;35.30;96044.91;6259171;23;20169;-90
2022/04/08 08:08:03;;;;;;;4.13;2.50;;;;;;;19.56;34.76;96049.47;6232583;23;20203;-85
2022/04/08 08:10:39;;;;;;;2.80;1.90;;;;;;;19.72;35.02;96041.72;6234667;23;20490;-91
2022/04/08 08:13:07;;;;;;;4.57;2.60;;;;;;;19.70;35.14;96072.59;6231717;23;20173;-91
2022/04/08 08:15:36;;;;;;;3.03;2.10;;;;;;;19.61;36.21;96079.56;6235460;23;20170;-90
2022/04/08 08:18:09;;;;;;;3.07;1.90;;;;;;;19.76;35.01;96085.13;6266856;23;20175;-89
2022/04/08 08:20:37;;;;;;;2.23;1.70;;;;;;;19.78;34.33;96096.31;6268631;22;20226;-89
2022/04/08 08:23:08;;;;;;;4.53;2.27;;;;;;;19.39;34.80;96025.63;6242724;23;20280;-89
2022/04/08 08:25:37;;;;;;;4.47;2.20;;;;;;;19.88;33.61;96082.13;6251844;23;20180;-92
2022/04/08 08:28:04;;;;;;;7.80;2.60;;;;;;;19.79;34.25;96071.66;6242917;23;20201;-91
2022/04/08 08:30:32;;;;;;;2.30;1.80;;;;;;;19.76;33.78;96071.97;6218132;23;20169;-94
2022/04/08 08:33:04;;;;;;;4.90;2.10;;;;;;;19.94;33.65;96091.19;6244940;23;20189;-90
2022/04/08 08:35:45;;;;;;;2.27;1.43;;;;;;;19.74;33.80;96073.94;6242941;23;20170;-92
2022/04/08 08:38:17;;;;;;;2.50;1.90;;;;;;;19.86;33.53;96101.63;6191522;23;20243;-89
2022/04/08 08:40:46;;;;;;;5.90;2.60;;;;;;;20.08;33.72;96101.19;6216157;23;20221;-92
2022/04/08 08:43:19;;;;;;;1.90;1.70;;;;;;;20.17;33.74;96105.53;6240319;23;20177;-89
2022/04/08 08:45:50;;;;;;;2.20;2.00;;;;;;;20.01;33.42;96087.00;6217961;23;20191;-89
2022/04/08 08:48:34;;;;;;;3.33;1.93;;;;;;;19.91;33.82;96086.22;6192309;23;20739;-89
2022/04/08 08:51:03;;;;;;;4.73;2.23;;;;;;;20.13;34.04;96097.13;6243080;23;20176;-85
2022/04/08 08:53:36;;;;;;;2.37;2.13;;;;;;;20.18;33.78;96096.66;6216740;23;20219;-91
2022/04/08 08:56:06;;;;;;;5.13;1.93;;;;;;;20.10;33.93;96083.44;6216782;23;20168;-85
2022/04/08 08:58:34;;;;;;;3.40;2.40;;;;;;;20.33;33.23;96099.63;6244510;23;20202;-89
2022/04/08 09:01:09;;;;;;;2.67;1.93;;;;;;;20.35;33.46;96106.38;6230207;23;20180;-89
2022/04/08 09:03:41;;;;;;;4.97;2.30;;;;;;;20.23;33.89;96095.28;6250453;23;20720;-88
2022/04/08 09:06:12;;;;;;;2.40;2.10;;;;;;;20.42;34.49;96123.22;6226200;23;20167;-88
2022/04/08 09:08:42;;;;;;;5.40;2.20;;;;;;;20.27;34.16;96087.91;6251206;23;20173;-89
2022/04/08 09:11:11;;;;;;;2.90;2.23;;;;;;;20.48;33.69;96109.44;6247869;23;20221;-88
2022/04/08 09:13:46;;;;;;;3.40;2.30;;;;;;;20.60;33.68;96125.81;6216356;23;20174;-89
2022/04/08 09:16:40;;;;;;;4.00;2.17;;;;;;;20.20;34.10;96081.59;6188678;23;20199;-93
2022/04/08 09:19:18;;;;;;;4.40;3.00;;;;;;;20.58;34.27;96112.81;6211417;23;20161;-92
2022/04/08 09:21:52;;;;;;;2.50;1.97;;;;;;;20.45;32.55;96062.41;6212971;23;20175;-90
2022/04/08 09:24:23;;;;;;;1.93;1.83;;;;;;;20.63;33.41;96110.53;6213695;23;20162;-85
2022/04/08 09:26:52;;;;;;;3.07;1.83;;;;;;;20.57;32.94;96111.13;6207051;23;20210;-83
2022/04/08 09:29:23;;;;;;;3.07;2.20;;;;;;;20.63;32.00;96110.53;6208645;23;20235;-88
2022/04/08 09:31:52;;;;;;;2.73;2.47;;;;;;;20.74;32.80;96115.53;6209878;23;20157;-92
2022/04/08 09:34:20;;;;;;;2.07;1.60;;;;;;;20.79;32.53;96113.25;6212633;23;20163;-90
2022/04/08 09:36:48;;;;;;;3.40;2.07;;;;;;;20.89;32.30;96123.69;6217637;23;20621;-91
2022/04/08 09:39:18;;;;;;;4.13;2.40;;;;;;;21.03;32.81;96128.41;6214029;23;20167;-90
2022/04/08 09:41:53;;;;;;;2.43;2.13;;;;;;;21.12;32.64;96118.75;6194127;23;20162;-92
2022/04/08 09:44:26;;;;;;;2.77;1.97;;;;;;;21.08;32.66;96104.25;6190697;23;20188;-89
2022/04/08 09:46:53;;;;;;;3.07;2.10;;;;;;;21.19;31.87;96143.47;6218760;23;20214;-87
2022/04/08 09:49:22;;;;;;;2.73;2.10;;;;;;;20.83;32.35;96096.19;6224088;23;20163;-88
2022/04/08 09:51:54;;;;;;;1.90;1.70;;;;;;;20.81;32.01;96098.13;6223591;23;20163;-89
2022/04/08 09:54:23;;;;;;;2.10;1.90;;;;;;;20.51;32.24;96127.53;6240056;23;20239;-90
2022/04/08 09:56:52;;;;;;;4.47;2.13;;;;;;;20.62;32.90;96134.38;6215100;23;20163;-92
2022/04/08 09:59:30;;;;;;;4.50;2.07;;;;;;;20.76;32.63;96132.00;6190036;23;20169;-91
2022/04/08 10:02:19;;;;;;;2.93;2.30;;;;;;;20.64;33.24;96133.25;6213303;23;20202;-88
2022/04/08 10:05:02;;;;;;;2.80;2.00;;;;;;;20.35;33.72;96095.84;6213516;23;20239;-88
2022/04/08 10:07:32;;;;;;;4.13;2.07;;;;;;;20.66;33.50;96144.44;6213444;23;20226;-91
2022/04/08 10:10:23;;;;;;;2.00;1.90;;;;;;;20.51;33.53;96142.50;6217334;23;20181;-90
2022/04/08 10:13:15;;;;;;;4.37;2.13;;;;;;;20.50;34.09;96141.69;6246918;23;20163;-93
2022/04/08 10:15:51;;;;;;;2.37;2.10;;;;;;;20.59;34.44;96109.19;6204991;23;20165;-89
2022/04/08 10:18:34;;;;;;;3.53;2.30;;;;;;;20.77;33.58;96146.00;6241384;23;20165;-92
2022/04/08 10:21:01;;;;;;;2.20;2.00;;;;;;;20.55;33.84;96126.25;6214842;23;20173;-91
2022/04/08 10:23:36;;;;;;;2.80;2.33;;;;;;;20.70;33.80;96153.66;6240454;23;20172;-87
2022/04/08 10:26:05;;;;;;;3.03;2.17;;;;;;;20.92;33.87;96147.06;6240589;23;20161;-90
2022/04/08 10:28:37;;;;;;;3.60;2.20;;;;;;;20.82;33.64;96117.38;6213131;23;20221;-85
2022/04/08 10:31:24;;;;;;;2.20;2.00;;;;;;;21.06;33.63;96149.97;6189492;23;20170;-86
2022/04/08 10:33:56;;;;;;;4.30;2.90;;;;;;;21.08;33.43;96144.59;6240905;23;20216;-84
2022/04/08 10:36:35;;;;;;;2.40;2.20;;;;;;;21.08;33.47;96134.84;6239481;23;20221;-86
2022/04/08 10:39:23;;;;;;;4.80;2.07;;;;;;;21.27;33.51;96133.00;6242503;23;20173;-89
2022/04/08 10:41:57;;;;;;;4.77;2.57;;;;;;;21.39;32.56;96134.34;6242247;23;20173;-91
2022/04/08 10:44:36;;;;;;;3.63;2.30;;;;;;;21.16;31.87;96112.19;6244189;23;20590;-92
2022/04/08 10:47:16;;;;;;;3.50;2.20;;;;;;;21.19;31.84;96106.59;6242572;23;20197;-89
2022/04/08 10:49:52;;;;;;;4.93;2.57;;;;;;;21.39;31.58;96113.28;6241833;23;20254;-90
2022/04/08 10:52:25;;;;;;;2.90;2.23;;;;;;;21.49;31.72;96132.41;6243560;23;20167;-92
2022/04/08 10:55:14;;;;;;;2.97;2.00;;;;;;;21.77;31.44;96139.09;6215196;23;20165;-93
2022/04/08 10:57:43;;;;;;;3.47;2.30;;;;;;;21.80;31.32;96154.59;6242706;23;20178;-93
2022/04/08 11:00:17;;;;;;;5.03;2.43;;;;;;;21.80;31.06;96150.13;6215942;23;20164;-91
2022/04/08 11:02:47;;;;;;;3.37;2.50;;;;;;;21.76;31.14;96124.28;6241653;23;20488;-90
2022/04/08 11:05:16;;;;;;;2.13;1.93;;;;;;;21.75;31.55;96126.09;6244818;23;20190;-92
2022/04/08 11:07:48;;;;;;;4.10;2.30;;;;;;;21.80;30.99;96144.06;6213871;23;20254;-83
2022/04/08 11:10:22;;;;;;;4.90;2.43;;;;;;;21.75;30.71;96118.19;6241552;23;20199;-83
2022/04/08 11:12:53;;;;;;;3.47;2.43;;;;;;;22.15;30.68;96154.38;6240610;23;20171;-85
2022/04/08 11:15:23;;;;;;;2.47;2.20;;;;;;;21.88;30.84;96161.72;6216239;23;20240;-84
2022/04/08 11:17:57;;;;;;;2.30;2.10;;;;;;;21.29;31.14;96129.19;6220583;23;20266;-86
2022/04/08 11:20:28;;;;;;;3.00;2.13;;;;;;;21.57;31.04;96159.63;6240067;23;20162;-90
2022/04/08 11:22:56;;;;;;;2.10;1.90;;;;;;;21.71;31.02;96147.66;6190470;23;20202;-85
2022/04/08 11:25:26;;;;;;;3.27;2.20;;;;;;;21.53;31.23;96160.09;6239440;23;20618;-87
2022/04/08 11:28:04;;;;;;;2.40;2.20;;;;;;;21.72;30.71;96157.22;6241540;23;20558;-91
2022/04/08 11:30:38;;;;;;;3.40;2.20;;;;;;;21.38;31.66;96143.22;6215162;23;20174;-92
2022/04/08 11:33:19;;;;;;;2.57;2.27;;;;;;;21.80;31.56;96160.69;6218970;23;20167;-92
2022/04/08 11:35:47;;;;;;;2.90;2.40;;;;;;;21.74;31.50;96121.78;6244944;23;20158;-92
2022/04/08 11:38:24;;;;;;;4.47;2.13;;;;;;;21.93;30.87;96141.00;6250684;23;20201;-91
2022/04/08 11:40:52;;;;;;;2.07;1.97;;;;;;;22.07;31.03;96114.78;6260750;22;20162;-86
2022/04/08 11:43:22;;;;;;;4.77;2.50;;;;;;;22.40;30.11;96142.84;6266895;22;20170;-87
2022/04/08 11:45:52;;;;;;;3.77;2.30;;;;;;;22.48;30.00;96150.75;6242295;23;20194;-88